Time;durP1;ratioP1;P1;durP2;ratioP2;P2;SDS_P1;SDS_P2;PMS_P1;PMS_P2;Temp;Humidity;BMP_temperature;BMP_pressure;BME280_temperature;BME280_humidity;BME280_pressure;Samples;Min_cycle;Max_cycle;Signal;HPM_P1;HPM_P2
2023/02/11 00:00:56;;;;;;;58.45;31.58;;;;;2.60;100481.00;;;;5073479;28;20045;-65
2023/02/11 00:03:23;;;;;;;50.15;30.73;;;;;2.70;100475.00;;;;5074195;28;20044;-64
2023/02/11 00:06:05;;;;;;;51.83;31.55;;;;;2.80;100478.00;;;;5074902;28;20123;-62
2023/02/11 00:08:31;;;;;;;53.40;32.22;;;;;2.80;100471.00;;;;5079737;28;20055;-62
2023/02/11 00:10:58;;;;;;;50.83;30.85;;;;;2.80;100471.00;;;;5062806;28;20490;-62
2023/02/11 00:13:24;;;;;;;59.17;31.98;;;;;2.90;100467.00;;;;5074478;28;20040;-62
2023/02/11 00:15:52;;;;;;;52.17;31.02;;;;;2.90;100466.00;;;;5072771;28;20489;-63
2023/02/11 00:18:19;;;;;;;55.90;31.17;;;;;2.90;100466.00;;;;5073765;28;20106;-63
2023/02/11 00:20:46;;;;;;;52.38;31.75;;;;;3.00;100472.00;;;;5072602;28;20053;-63
2023/02/11 00:23:12;;;;;;;51.63;31.25;;;;;3.10;100473.00;;;;5073596;28;20110;-63
2023/02/11 00:25:43;;;;;;;51.97;29.70;;;;;3.10;100474.00;;;;5073217;28;20037;-62
2023/02/11 00:28:10;;;;;;;53.90;31.05;;;;;3.20;100475.00;;;;5072465;28;20140;-62
2023/02/11 00:30:39;;;;;;;60.72;28.80;;;;;3.20;100461.00;;;;5073580;28;20501;-61
2023/02/11 00:33:09;;;;;;;56.45;30.17;;;;;3.30;100453.00;;;;5073778;28;20444;-62
2023/02/11 00:35:37;;;;;;;60.22;32.22;;;;;3.30;100456.00;;;;5073005;28;20109;-62
2023/02/11 00:38:06;;;;;;;57.65;32.05;;;;;3.30;100445.00;;;;5072481;28;20115;-62
2023/02/11 00:40:32;;;;;;;53.17;31.20;;;;;3.30;100455.00;;;;5072546;28;20505;-62
2023/02/11 00:42:59;;;;;;;51.13;30.13;;;;;3.30;100456.00;;;;5072254;28;20048;-62
2023/02/11 00:45:25;;;;;;;53.33;31.60;;;;;3.20;100452.00;;;;5071610;28;20421;-62
2023/02/11 00:47:53;;;;;;;52.42;29.30;;;;;3.20;100452.00;;;;5055510;28;20045;-62
2023/02/11 00:50:20;;;;;;;51.25;30.83;;;;;3.20;100450.00;;;;5073087;28;20056;-62
2023/02/11 00:52:47;;;;;;;50.17;30.63;;;;;3.20;100456.00;;;;5071879;28;20036;-63
2023/02/11 00:55:15;;;;;;;54.90;32.67;;;;;3.10;100453.00;;;;5072589;28;20520;-63
2023/02/11 00:57:41;;;;;;;57.35;32.45;;;;;3.10;100455.00;;;;5071793;28;20123;-63
2023/02/11 01:00:10;;;;;;;56.08;32.65;;;;;3.20;100452.00;;;;5071984;28;20044;-63
2023/02/11 01:02:37;;;;;;;54.92;31.65;;;;;3.20;100450.00;;;;5072813;28;20051;-63
2023/02/11 01:05:03;;;;;;;49.08;30.27;;;;;3.20;100454.00;;;;5072619;28;20041;-62
2023/02/11 01:07:31;;;;;;;50.78;30.98;;;;;3.30;100456.00;;;;5072873;28;20082;-63
2023/02/11 01:09:58;;;;;;;50.40;30.75;;;;;3.30;100460.00;;;;5054957;28;20052;-62
2023/02/11 01:12:27;;;;;;;51.75;30.08;;;;;3.30;100465.00;;;;5071204;28;20513;-63
2023/02/11 01:14:56;;;;;;;56.17;32.13;;;;;3.20;100456.00;;;;5071841;28;20406;-62
2023/02/11 01:17:23;;;;;;;59.08;31.45;;;;;3.20;100456.00;;;;5072407;28;20056;-63
2023/02/11 01:19:49;;;;;;;47.70;29.67;;;;;3.20;100460.00;;;;5072447;28;20049;-63
2023/02/11 01:22:16;;;;;;;50.10;30.98;;;;;3.30;100455.00;;;;5071166;28;20055;-62
2023/02/11 01:24:43;;;;;;;54.60;32.40;;;;;3.30;100451.00;;;;5074507;28;20074;-62
2023/02/11 01:27:09;;;;;;;53.58;30.70;;;;;3.40;100440.00;;;;5074252;28;20052;-63
2023/02/11 01:29:36;;;;;;;53.58;31.38;;;;;3.50;100443.00;;;;5075442;28;20044;-63
2023/02/11 01:32:02;;;;;;;53.15;32.55;;;;;3.50;100446.00;;;;5075381;28;20500;-63
2023/02/11 01:34:29;;;;;;;55.40;32.20;;;;;3.50;100452.00;;;;5075477;28;20078;-62
2023/02/11 01:36:59;;;;;;;54.35;31.58;;;;;3.40;100445.00;;;;5075400;28;20052;-62
2023/02/11 01:39:27;;;;;;;55.03;32.42;;;;;3.40;100445.00;;;;5075473;28;20102;-62
2023/02/11 01:41:54;;;;;;;55.42;33.28;;;;;3.40;100446.00;;;;5058219;28;20063;-62
2023/02/11 01:44:29;;;;;;;50.47;31.58;;;;;3.50;100447.00;;;;5074977;28;20501;-62
2023/02/11 01:46:56;;;;;;;54.20;32.30;;;;;3.40;100435.00;;;;5076720;28;20051;-62
2023/02/11 01:49:48;;;;;;;56.72;33.25;;;;;3.40;100436.00;;;;5075288;28;20050;-62
2023/02/11 01:52:33;;;;;;;53.17;31.98;;;;;3.40;100438.00;;;;5069236;28;20505;-62
2023/02/11 01:57:52;;;;;;;52.38;32.40;;;;;3.40;100424.00;;;;5071742;28;20052;-62
2023/02/11 02:00:37;;;;;;;55.58;33.42;;;;;3.40;100406.00;;;;5070518;28;20062;-62
2023/02/11 02:03:15;;;;;;;56.65;32.78;;;;;3.40;100404.00;;;;5071688;28;20036;-61
2023/02/11 02:05:56;;;;;;;57.42;33.78;;;;;3.40;100406.00;;;;5069584;28;20042;-62
2023/02/11 02:08:50;;;;;;;50.00;30.55;;;;;3.50;100399.00;;;;5071834;28;20048;-62
2023/02/11 02:11:17;;;;;;;53.58;31.65;;;;;3.50;100385.00;;;;5070390;28;20040;-62
2023/02/11 02:13:43;;;;;;;50.40;29.73;;;;;3.50;100391.00;;;;5071368;28;20048;-62
2023/02/11 02:16:16;;;;;;;47.47;28.98;;;;;3.50;100387.00;;;;5070044;28;20057;-62
2023/02/11 02:19:22;;;;;;;46.42;27.98;;;;;3.60;100382.00;;;;5071634;28;20161;-62
2023/02/11 02:22:22;;;;;;;44.05;26.52;;;;;3.60;100392.00;;;;5070438;28;20465;-62
2023/02/11 02:24:56;;;;;;;42.10;26.20;;;;;3.60;100386.00;;;;5070914;28;20041;-61
2023/02/11 02:27:44;;;;;;;46.50;25.92;;;;;3.60;100377.00;;;;5071317;28;20583;-61
2023/02/11 02:30:42;;;;;;;41.28;24.85;;;;;3.60;100378.00;;;;5071373;28;20040;-62
2023/02/11 02:33:21;;;;;;;48.10;26.25;;;;;3.60;100378.00;;;;5071271;28;20033;-62
2023/02/11 02:35:51;;;;;;;44.40;25.88;;;;;3.60;100369.00;;;;5070720;28;20140;-62
2023/02/11 02:38:21;;;;;;;43.35;26.20;;;;;3.60;100371.00;;;;5070953;28;20048;-62
2023/02/11 02:40:53;;;;;;;42.13;26.40;;;;;3.70;100380.00;;;;5070063;28;20084;-62
2023/02/11 02:43:22;;;;;;;51.95;28.25;;;;;3.70;100376.00;;;;5071291;28;20547;-62
2023/02/11 02:45:49;;;;;;;49.40;28.55;;;;;3.70;100389.00;;;;5070773;28;20101;-62
2023/02/11 02:48:34;;;;;;;48.10;28.40;;;;;3.70;100386.00;;;;5071847;28;20087;-62
2023/02/11 02:51:18;;;;;;;46.47;27.98;;;;;3.70;100384.00;;;;5071624;28;20040;-63
2023/02/11 02:54:00;;;;;;;47.10;28.35;;;;;3.70;100379.00;;;;5071181;28;20041;-62
2023/02/11 02:56:50;;;;;;;48.70;28.20;;;;;3.70;100365.00;;;;5069609;28;20040;-62
2023/02/11 02:59:57;;;;;;;48.40;28.00;;;;;3.80;100370.00;;;;5070152;28;20052;-62
2023/02/11 03:02:46;;;;;;;45.38;28.00;;;;;3.80;100373.00;;;;5071330;28;20044;-62
2023/02/11 03:05:30;;;;;;;48.25;28.80;;;;;3.70;100382.00;;;;5070511;28;20045;-62
2023/02/11 03:08:08;;;;;;;48.50;29.92;;;;;3.50;100388.00;;;;5071116;28;20119;-62
2023/02/11 03:10:39;;;;;;;48.17;28.73;;;;;3.50;100385.00;;;;5071098;28;20040;-62
2023/02/11 03:13:06;;;;;;;45.72;28.23;;;;;3.40;100385.00;;;;5070862;28;20051;-62
2023/02/11 03:15:37;;;;;;;47.72;28.95;;;;;3.30;100387.00;;;;5070477;28;20240;-62
2023/02/11 03:18:08;;;;;;;45.97;27.77;;;;;3.40;100394.00;;;;5069687;28;20113;-62
2023/02/11 03:20:39;;;;;;;50.55;28.88;;;;;3.50;100389.00;;;;5069697;28;20075;-62
2023/02/11 03:23:17;;;;;;;43.85;27.25;;;;;3.60;100388.00;;;;5070958;28;20037;-63
2023/02/11 03:26:16;;;;;;;48.90;27.75;;;;;3.70;100397.00;;;;5070285;28;20053;-62
2023/02/11 03:28:46;;;;;;;51.38;29.42;;;;;3.70;100397.00;;;;5070838;28;20045;-62
2023/02/11 03:31:19;;;;;;;48.22;28.25;;;;;3.60;100412.00;;;;5071038;28;20055;-62
2023/02/11 03:33:55;;;;;;;46.20;28.40;;;;;3.60;100395.00;;;;5071079;28;20561;-62
2023/02/11 03:37:03;;;;;;;46.45;27.23;;;;;3.50;100399.00;;;;5070701;28;20044;-63
2023/02/11 03:39:35;;;;;;;46.05;26.83;;;;;3.60;100396.00;;;;5071015;28;20048;-62
2023/02/11 03:42:04;;;;;;;43.53;26.13;;;;;3.70;100400.00;;;;5069655;28;20046;-62
2023/02/11 03:44:38;;;;;;;47.15;28.42;;;;;3.80;100393.00;;;;5070371;28;20036;-62
2023/02/11 03:47:09;;;;;;;47.13;27.75;;;;;3.80;100391.00;;;;5069609;28;20048;-62
2023/02/11 03:49:38;;;;;;;45.83;27.20;;;;;3.80;100395.00;;;;5071344;28;20048;-62
2023/02/11 03:52:07;;;;;;;45.60;28.15;;;;;3.70;100383.00;;;;5074303;28;20048;-62
2023/02/11 03:54:34;;;;;;;48.17;27.00;;;;;3.80;100380.00;;;;5076316;28;20555;-62
2023/02/11 03:57:01;;;;;;;47.20;29.05;;;;;3.80;100387.00;;;;5078386;28;20158;-62
2023/02/11 03:59:28;;;;;;;47.78;27.33;;;;;3.70;100390.00;;;;5076579;28;20057;-62
2023/02/11 04:01:56;;;;;;;44.70;28.17;;;;;3.60;100394.00;;;;5077751;28;20052;-61
2023/02/11 04:04:23;;;;;;;46.50;28.05;;;;;3.50;100391.00;;;;5076956;28;20036;-61
2023/02/11 04:06:49;;;;;;;42.47;27.27;;;;;3.50;100387.00;;;;5077821;28;20067;-61
2023/02/11 04:09:16;;;;;;;44.10;26.15;;;;;3.60;100380.00;;;;5076731;28;20051;-61
2023/02/11 04:11:42;;;;;;;46.75;27.88;;;;;3.60;100368.00;;;;5077510;28;20056;-61
2023/02/11 04:14:09;;;;;;;42.80;27.48;;;;;3.70;100364.00;;;;5077496;28;20041;-62
2023/02/11 04:16:35;;;;;;;47.63;28.58;;;;;3.70;100350.00;;;;5077601;28;20040;-62
2023/02/11 04:19:02;;;;;;;45.20;27.73;;;;;3.80;100344.00;;;;5077612;28;20066;-62
2023/02/11 04:21:28;;;;;;;44.97;26.40;;;;;3.80;100338.00;;;;5077436;28;20040;-61
2023/02/11 04:23:55;;;;;;;45.15;26.92;;;;;3.80;100337.00;;;;5075778;28;20041;-62
2023/02/11 04:26:21;;;;;;;44.53;26.80;;;;;3.80;100338.00;;;;5076096;28;20048;-62
2023/02/11 04:28:48;;;;;;;44.47;25.88;;;;;3.70;100348.00;;;;5077516;28;20040;-62
2023/02/11 04:31:14;;;;;;;42.10;25.05;;;;;3.70;100349.00;;;;5078101;28;20052;-62
2023/02/11 04:33:41;;;;;;;37.95;22.52;;;;;3.70;100349.00;;;;5080131;28;20087;-62
2023/02/11 04:36:07;;;;;;;40.47;24.38;;;;;3.70;100352.00;;;;5078409;28;20044;-62
2023/02/11 04:38:34;;;;;;;42.00;24.83;;;;;3.70;100321.00;;;;5079443;28;20097;-62
2023/02/11 04:41:00;;;;;;;44.63;27.02;;;;;3.60;100310.00;;;;5079203;28;20068;-62
2023/02/11 04:43:27;;;;;;;41.10;23.05;;;;;3.60;100303.00;;;;5078704;28;20049;-62
2023/02/11 04:45:57;;;;;;;37.90;22.70;;;;;3.50;100294.00;;;;5079167;28;20052;-62
2023/02/11 04:48:24;;;;;;;39.28;22.25;;;;;3.50;100293.00;;;;5075087;28;20048;-62
2023/02/11 04:50:51;;;;;;;34.97;20.77;;;;;3.40;100294.00;;;;5075262;28;20056;-62
2023/02/11 04:53:18;;;;;;;35.92;20.23;;;;;3.50;100297.00;;;;5073931;28;20094;-62
2023/02/11 04:55:48;;;;;;;35.95;21.60;;;;;3.50;100294.00;;;;5073603;28;20147;-62
2023/02/11 04:58:16;;;;;;;32.97;21.02;;;;;3.50;100290.00;;;;5073976;28;20493;-63
2023/02/11 05:00:42;;;;;;;31.77;21.35;;;;;3.40;100295.00;;;;5073805;28;20044;-62
2023/02/11 05:03:10;;;;;;;34.83;20.75;;;;;3.40;100294.00;;;;5072637;28;20045;-62
2023/02/11 05:05:40;;;;;;;37.30;21.50;;;;;3.40;100294.00;;;;5073169;28;20453;-62
2023/02/11 05:08:11;;;;;;;36.30;21.30;;;;;3.40;100288.00;;;;5073742;28;20102;-62
2023/02/11 05:10:37;;;;;;;36.15;20.95;;;;;3.50;100288.00;;;;5072470;28;20041;-62
2023/02/11 05:13:04;;;;;;;33.33;20.75;;;;;3.40;100294.00;;;;5073565;28;20070;-62
2023/02/11 05:15:31;;;;;;;31.60;20.50;;;;;3.50;100299.00;;;;5072936;28;20045;-62
2023/02/11 05:17:57;;;;;;;33.88;20.73;;;;;3.40;100310.00;;;;5073344;28;20059;-62
2023/02/11 05:20:24;;;;;;;32.33;19.75;;;;;3.40;100309.00;;;;5073276;28;20571;-62
2023/02/11 05:22:50;;;;;;;32.60;19.60;;;;;3.50;100295.00;;;;5072983;28;20079;-62
2023/02/11 05:25:17;;;;;;;32.65;18.98;;;;;3.40;100305.00;;;;5072371;28;20040;-62
2023/02/11 05:27:43;;;;;;;35.15;20.08;;;;;3.40;100298.00;;;;5073124;28;20405;-62
2023/02/11 05:30:10;;;;;;;29.42;18.40;;;;;3.50;100311.00;;;;5055430;28;20056;-62
2023/02/11 05:32:37;;;;;;;35.47;20.02;;;;;3.50;100309.00;;;;5071569;28;20051;-62
2023/02/11 05:35:04;;;;;;;30.40;18.45;;;;;3.50;100315.00;;;;5072573;28;20479;-62
2023/02/11 05:37:31;;;;;;;31.88;20.10;;;;;3.50;100317.00;;;;5071537;28;20413;-62
2023/02/11 05:39:57;;;;;;;34.80;20.55;;;;;3.50;100323.00;;;;5054772;28;20052;-62
2023/02/11 05:42:24;;;;;;;31.50;19.13;;;;;3.50;100331.00;;;;5072789;28;20045;-64
2023/02/11 05:44:50;;;;;;;32.38;21.25;;;;;3.50;100347.00;;;;5072618;28;20033;-61
2023/02/11 05:47:17;;;;;;;31.90;20.05;;;;;3.60;100346.00;;;;5072757;28;20408;-62
2023/02/11 05:49:43;;;;;;;32.53;20.40;;;;;3.60;100333.00;;;;5072713;28;20043;-62
2023/02/11 05:52:10;;;;;;;33.15;19.85;;;;;3.60;100340.00;;;;5072467;28;20082;-62
2023/02/11 05:54:37;;;;;;;34.72;20.25;;;;;3.70;100339.00;;;;5070513;28;20049;-63
2023/02/11 05:57:03;;;;;;;32.95;20.73;;;;;3.70;100325.00;;;;5072346;28;20048;-62
2023/02/11 05:59:30;;;;;;;35.85;20.08;;;;;3.80;100334.00;;;;5072755;28;20037;-62
2023/02/11 06:01:56;;;;;;;32.60;19.98;;;;;3.80;100325.00;;;;5071044;28;20063;-62
2023/02/11 06:04:23;;;;;;;32.08;19.52;;;;;3.80;100340.00;;;;5071800;28;20059;-62
2023/02/11 06:06:49;;;;;;;31.73;19.58;;;;;3.90;100321.00;;;;5072280;28;20041;-62
2023/02/11 06:09:16;;;;;;;33.10;20.83;;;;;3.90;100332.00;;;;5071514;28;20067;-62
2023/02/11 06:11:42;;;;;;;38.53;21.65;;;;;4.00;100331.00;;;;5071031;28;20044;-62
2023/02/11 06:14:09;;;;;;;32.97;20.42;;;;;4.00;100319.00;;;;5071308;28;20412;-61
2023/02/11 06:16:36;;;;;;;32.00;19.77;;;;;4.00;100312.00;;;;5054530;28;20055;-62
2023/02/11 06:19:03;;;;;;;34.85;20.05;;;;;4.00;100308.00;;;;5072305;28;20040;-62
2023/02/11 06:21:30;;;;;;;32.60;20.00;;;;;4.00;100308.00;;;;5072109;28;20044;-62
2023/02/11 06:24:09;;;;;;;35.83;20.55;;;;;4.00;100315.00;;;;5070735;28;20045;-64
2023/02/11 06:26:35;;;;;;;34.58;20.08;;;;;4.00;100300.00;;;;5072517;28;20036;-63
2023/02/11 06:29:02;;;;;;;34.50;19.95;;;;;4.00;100297.00;;;;5072097;28;20047;-64
2023/02/11 06:31:28;;;;;;;30.10;18.90;;;;;4.00;100288.00;;;;5072200;28;20448;-63
2023/02/11 06:33:55;;;;;;;31.55;18.95;;;;;3.90;100296.00;;;;5072691;28;20401;-62
2023/02/11 06:36:22;;;;;;;34.55;20.42;;;;;3.90;100288.00;;;;5069783;28;20056;-63
2023/02/11 06:38:49;;;;;;;30.83;19.38;;;;;3.90;100302.00;;;;5070740;28;20072;-62
2023/02/11 06:41:19;;;;;;;32.42;19.65;;;;;3.90;100309.00;;;;5071946;28;20040;-62
2023/02/11 06:43:46;;;;;;;32.65;19.15;;;;;3.90;100309.00;;;;5071907;28;20595;-62
2023/02/11 06:46:13;;;;;;;30.85;18.80;;;;;4.00;100316.00;;;;5071792;28;20045;-64
2023/02/11 06:48:40;;;;;;;30.33;19.40;;;;;4.00;100313.00;;;;5072177;28;20040;-62
2023/02/11 06:51:12;;;;;;;29.52;18.83;;;;;4.00;100321.00;;;;5072136;28;20048;-62
2023/02/11 06:53:42;;;;;;;31.50;19.08;;;;;4.10;100333.00;;;;5071996;28;20513;-62
2023/02/11 06:56:16;;;;;;;30.80;18.73;;;;;4.10;100334.00;;;;5070019;28;20044;-62
2023/02/11 06:58:43;;;;;;;30.02;17.88;;;;;4.10;100342.00;;;;5071795;28;20049;-62
2023/02/11 07:01:12;;;;;;;29.75;18.80;;;;;4.10;100341.00;;;;5071649;28;20044;-63
2023/02/11 07:03:45;;;;;;;27.33;17.67;;;;;4.20;100341.00;;;;5071893;28;20489;-63
2023/02/11 07:06:14;;;;;;;33.53;20.40;;;;;4.20;100333.00;;;;5070199;28;20044;-63
2023/02/11 07:08:42;;;;;;;29.60;19.13;;;;;4.20;100335.00;;;;5071774;28;20098;-62
2023/02/11 07:11:18;;;;;;;31.33;18.58;;;;;4.30;100340.00;;;;5071743;28;20040;-64
2023/02/11 07:13:45;;;;;;;28.48;18.15;;;;;4.30;100340.00;;;;5070365;28;20059;-64
2023/02/11 07:16:14;;;;;;;27.90;17.95;;;;;4.40;100335.00;;;;5069945;28;20716;-63
2023/02/11 07:18:41;;;;;;;27.02;17.33;;;;;4.40;100345.00;;;;5071840;28;20493;-63
2023/02/11 07:21:11;;;;;;;29.63;17.98;;;;;4.40;100346.00;;;;5071484;28;20485;-63
2023/02/11 07:23:39;;;;;;;27.38;17.30;;;;;4.40;100345.00;;;;5071552;28;20044;-63
2023/02/11 07:26:08;;;;;;;26.80;17.50;;;;;4.40;100350.00;;;;5073932;28;20045;-62
2023/02/11 07:28:36;;;;;;;29.52;17.67;;;;;4.40;100347.00;;;;5075277;28;20048;-64
2023/02/11 07:31:12;;;;;;;26.25;17.67;;;;;4.40;100344.00;;;;5074164;28;20375;-61
2023/02/11 07:33:40;;;;;;;27.75;17.27;;;;;4.40;100340.00;;;;5075317;28;20489;-63
2023/02/11 07:36:08;;;;;;;27.60;17.20;;;;;4.50;100347.00;;;;5075112;28;20044;-63
2023/02/11 07:38:36;;;;;;;28.60;18.27;;;;;4.50;100339.00;;;;5075617;28;20493;-63
2023/02/11 07:41:05;;;;;;;28.52;17.95;;;;;4.60;100324.00;;;;5074223;28;20057;-62
2023/02/11 07:43:33;;;;;;;28.27;17.20;;;;;4.60;100323.00;;;;5075576;28;20074;-63
2023/02/11 07:46:03;;;;;;;26.77;17.08;;;;;4.60;100319.00;;;;5075177;28;20047;-62
2023/02/11 07:48:30;;;;;;;26.60;17.45;;;;;4.60;100338.00;;;;5073649;28;20502;-63
2023/02/11 07:51:13;;;;;;;28.08;17.65;;;;;4.60;100337.00;;;;5076497;28;20051;-62
2023/02/11 07:53:39;;;;;;;30.20;17.67;;;;;4.70;100343.00;;;;5075886;28;20048;-62
2023/02/11 07:56:08;;;;;;;32.00;17.55;;;;;4.80;100343.00;;;;5075850;28;20048;-64
2023/02/11 07:58:35;;;;;;;27.60;16.63;;;;;4.80;100339.00;;;;5077251;28;20045;-64
2023/02/11 08:01:07;;;;;;;28.77;17.85;;;;;4.80;100338.00;;;;5075297;28;20040;-63
2023/02/11 08:03:34;;;;;;;30.80;18.25;;;;;4.90;100342.00;;;;5074875;28;20049;-63
2023/02/11 08:06:05;;;;;;;28.88;17.58;;;;;5.00;100342.00;;;;5074296;28;20132;-63
2023/02/11 08:08:32;;;;;;;26.92;17.35;;;;;5.00;100356.00;;;;5073671;28;20053;-63
2023/02/11 08:11:09;;;;;;;30.50;17.98;;;;;5.10;100355.00;;;;5074413;28;20051;-63
2023/02/11 08:13:35;;;;;;;29.23;18.23;;;;;5.20;100355.00;;;;5074676;28;20044;-62
2023/02/11 08:16:03;;;;;;;28.02;18.48;;;;;5.30;100358.00;;;;5073704;28;20036;-63
2023/02/11 08:18:31;;;;;;;30.15;18.40;;;;;5.40;100355.00;;;;5074790;28;20043;-63
2023/02/11 08:21:08;;;;;;;28.17;17.40;;;;;5.40;100355.00;;;;5074708;28;20048;-64
2023/02/11 08:23:36;;;;;;;28.90;18.13;;;;;5.40;100350.00;;;;5074655;28;20056;-61
2023/02/11 08:26:05;;;;;;;28.77;18.45;;;;;5.40;100363.00;;;;5073902;28;20496;-61
2023/02/11 08:28:35;;;;;;;27.05;18.58;;;;;5.40;100352.00;;;;5074436;28;20043;-63
2023/02/11 08:31:09;;;;;;;31.48;18.02;;;;;5.50;100358.00;;;;5073528;28;20055;-64
2023/02/11 08:33:35;;;;;;;;;;;;;5.50;100365.00;;;;5074932;28;20072;-63
2023/02/11 08:36:16;;;;;;;32.58;19.33;;;;;5.50;100362.00;;;;5073409;28;19924;-62
2023/02/11 08:38:44;;;;;;;38.40;22.33;;;;;5.50;100372.00;;;;5074214;28;20063;-63
2023/02/11 08:41:25;;;;;;;32.33;20.23;;;;;5.50;100366.00;;;;5072931;28;20071;-63
2023/02/11 08:43:56;;;;;;;31.88;19.67;;;;;5.50;100360.00;;;;5072899;28;20132;-62
2023/02/11 08:46:25;;;;;;;26.67;18.00;;;;;5.60;100365.00;;;;5073506;28;20058;-62
2023/02/11 08:48:52;;;;;;;31.35;19.00;;;;;5.60;100370.00;;;;5074028;28;20043;-62
2023/02/11 08:51:30;;;;;;;35.38;22.55;;;;;5.70;100367.00;;;;5073926;28;20041;-61
2023/02/11 08:53:56;;;;;;;35.47;21.77;;;;;5.90;100375.00;;;;5074031;28;20055;-62
2023/02/11 08:56:24;;;;;;;32.42;20.45;;;;;5.90;100366.00;;;;5073700;28;20036;-62
2023/02/11 08:58:51;;;;;;;32.35;20.38;;;;;6.10;100365.00;;;;5073694;28;20044;-62
2023/02/11 09:01:21;;;;;;;36.00;21.83;;;;;6.30;100384.00;;;;5073626;28;20046;-62
2023/02/11 09:03:49;;;;;;;32.17;18.45;;;;;6.40;100387.00;;;;5073711;28;20044;-62
2023/02/11 09:06:17;;;;;;;37.13;20.73;;;;;6.40;100376.00;;;;5072993;28;20040;-63
2023/02/11 09:08:48;;;;;;;37.33;23.38;;;;;6.40;100376.00;;;;5073575;28;20115;-63
2023/02/11 09:11:15;;;;;;;28.80;18.45;;;;;6.50;100380.00;;;;5073183;28;20044;-63
2023/02/11 09:13:43;;;;;;;32.03;19.30;;;;;6.60;100381.00;;;;5073177;28;20052;-63
2023/02/11 09:16:17;;;;;;;31.13;20.75;;;;;6.60;100380.00;;;;5072989;28;20044;-62
2023/02/11 09:18:44;;;;;;;;;;;;;6.80;100372.00;;;;5074100;28;20052;-62
2023/02/11 09:21:12;;;;;;;28.00;18.23;;;;;6.80;100373.00;;;;5073516;28;20334;-62
2023/02/11 09:23:40;;;;;;;33.85;19.15;;;;;6.90;100377.00;;;;5073233;28;20398;-63
2023/02/11 09:26:09;;;;;;;34.92;19.85;;;;;7.00;100375.00;;;;5072538;28;20048;-63
2023/02/11 09:28:35;;;;;;;30.48;17.83;;;;;7.00;100383.00;;;;5073340;28;20066;-64
2023/02/11 09:31:06;;;;;;;28.80;19.10;;;;;6.90;100387.00;;;;5074076;28;20071;-62
2023/02/11 09:33:33;;;;;;;31.92;18.35;;;;;6.90;100393.00;;;;5074351;28;20115;-62
2023/02/11 09:36:05;;;;;;;28.48;18.35;;;;;7.00;100394.00;;;;5073256;28;20051;-62
2023/02/11 09:38:31;;;;;;;31.52;19.10;;;;;7.00;100396.00;;;;5072261;28;20452;-61
2023/02/11 09:40:58;;;;;;;30.60;18.85;;;;;7.10;100391.00;;;;5073121;28;20040;-63
2023/02/11 09:43:41;;;;;;;30.00;18.23;;;;;7.00;100398.00;;;;5073414;28;20040;-63
2023/02/11 09:46:11;;;;;;;32.35;19.02;;;;;7.00;100393.00;;;;5072805;28;20090;-61
2023/02/11 09:48:41;;;;;;;29.85;17.75;;;;;7.10;100392.00;;;;5072261;28;20075;-63
2023/02/11 09:51:29;;;;;;;32.85;20.02;;;;;7.20;100399.00;;;;5074240;28;20102;-63
2023/02/11 09:54:02;;;;;;;27.83;17.52;;;;;7.20;100407.00;;;;5072755;28;20041;-61
2023/02/11 09:56:31;;;;;;;31.45;18.88;;;;;7.20;100423.00;;;;5071579;28;20086;-62
2023/02/11 09:58:58;;;;;;;27.92;17.00;;;;;7.20;100427.00;;;;5072735;28;20056;-62
2023/02/11 10:01:39;;;;;;;28.02;18.17;;;;;7.20;100423.00;;;;5072588;28;20044;-62
2023/02/11 10:04:31;;;;;;;28.85;18.35;;;;;7.10;100422.00;;;;5070858;28;20045;-62
2023/02/11 10:07:33;;;;;;;48.90;26.75;;;;;7.10;100406.00;;;;5072590;28;20389;-62
2023/02/11 10:10:06;;;;;;;27.08;17.45;;;;;7.10;100413.00;;;;5071343;28;20512;-63
2023/02/11 10:12:57;;;;;;;31.98;19.45;;;;;7.20;100410.00;;;;5073488;28;20374;-62
2023/02/11 10:15:43;;;;;;;39.53;22.33;;;;;7.30;100400.00;;;;5072713;28;20045;-62
2023/02/11 10:18:18;;;;;;;38.78;20.55;;;;;7.30;100415.00;;;;5073382;28;20076;-61
2023/02/11 10:21:00;;;;;;;29.05;17.92;;;;;7.20;100409.00;;;;5073500;28;20044;-63
2023/02/11 10:23:33;;;;;;;33.15;19.95;;;;;7.20;100414.00;;;;5072328;28;20102;-64
2023/02/11 10:26:00;;;;;;;38.45;21.25;;;;;7.20;100421.00;;;;5071607;28;20043;-63
2023/02/11 10:28:32;;;;;;;40.25;21.15;;;;;7.30;100411.00;;;;5072539;28;20040;-64
2023/02/11 10:31:01;;;;;;;29.90;18.17;;;;;7.40;100431.00;;;;5072364;28;20054;-64
2023/02/11 10:33:31;;;;;;;36.13;20.33;;;;;7.40;100426.00;;;;5072380;28;20044;-64
2023/02/11 10:35:58;;;;;;;30.52;18.48;;;;;7.40;100428.00;;;;5071828;28;20455;-64
2023/02/11 10:38:26;;;;;;;34.25;20.67;;;;;7.50;100436.00;;;;5072119;28;20090;-64
2023/02/11 10:40:53;;;;;;;36.70;20.85;;;;;7.60;100429.00;;;;5071267;28;20098;-62
2023/02/11 10:43:25;;;;;;;35.40;21.45;;;;;7.60;100428.00;;;;5072230;28;20131;-62
2023/02/11 10:45:53;;;;;;;33.05;19.15;;;;;7.80;100422.00;;;;5072117;28;20040;-64
2023/02/11 10:48:43;;;;;;;33.83;19.77;;;;;7.90;100416.00;;;;5072347;28;20052;-64
2023/02/11 10:51:09;;;;;;;33.75;20.38;;;;;7.80;100410.00;;;;5071260;28;20229;-64
2023/02/11 10:53:39;;;;;;;38.72;22.58;;;;;7.70;100404.00;;;;5072336;28;20516;-64
2023/02/11 10:56:11;;;;;;;43.47;24.05;;;;;7.80;100401.00;;;;5071535;28;20052;-63
2023/02/11 10:58:40;;;;;;;36.03;22.02;;;;;7.90;100403.00;;;;5072840;28;20322;-64
2023/02/11 11:01:07;;;;;;;44.78;22.88;;;;;7.90;100400.00;;;;5074783;28;20570;-64
2023/02/11 11:03:51;;;;;;;35.88;21.83;;;;;7.80;100403.00;;;;5074972;28;20106;-64
2023/02/11 11:06:29;;;;;;;38.00;21.35;;;;;7.80;100405.00;;;;5075152;28;20036;-64
2023/02/11 11:08:56;;;;;;;34.55;20.58;;;;;7.80;100412.00;;;;5075766;28;20525;-64
2023/02/11 11:11:24;;;;;;;35.15;20.85;;;;;7.70;100399.00;;;;5075581;28;20044;-64
2023/02/11 11:13:51;;;;;;;37.03;21.10;;;;;7.70;100406.00;;;;5074199;28;20486;-63
2023/02/11 11:16:31;;;;;;;39.38;22.88;;;;;7.70;100410.00;;;;5073660;28;20044;-64
2023/02/11 11:19:07;;;;;;;39.50;22.52;;;;;7.70;100414.00;;;;5074424;28;20052;-63
2023/02/11 11:21:40;;;;;;;34.58;19.80;;;;;7.80;100405.00;;;;5075457;28;20075;-63
2023/02/11 11:24:18;;;;;;;39.53;22.52;;;;;7.90;100399.00;;;;5074070;28;20054;-62
2023/02/11 11:26:48;;;;;;;37.45;21.73;;;;;8.10;100393.00;;;;5076281;28;20040;-62
2023/02/11 11:29:18;;;;;;;37.03;21.67;;;;;8.20;100402.00;;;;5075824;28;20040;-63
2023/02/11 11:31:52;;;;;;;38.72;23.08;;;;;8.30;100403.00;;;;5075758;28;20052;-62
2023/02/11 11:34:32;;;;;;;39.17;23.37;;;;;8.30;100398.00;;;;5075063;28;20048;-63
2023/02/11 11:37:08;;;;;;;42.28;22.52;;;;;8.50;100393.00;;;;5075743;28;20040;-62
2023/02/11 11:39:35;;;;;;;34.78;20.73;;;;;8.50;100402.00;;;;5076187;28;20044;-61
2023/02/11 11:42:04;;;;;;;38.03;21.38;;;;;8.60;100393.00;;;;5076007;28;20059;-64
2023/02/11 11:44:34;;;;;;;36.72;20.17;;;;;8.50;100387.00;;;;5074682;28;20330;-64
2023/02/11 11:47:12;;;;;;;38.28;21.52;;;;;8.60;100405.00;;;;5075138;28;20409;-65
2023/02/11 11:49:46;;;;;;;35.75;21.10;;;;;8.40;100410.00;;;;5075594;28;20066;-64
2023/02/11 11:52:32;;;;;;;34.92;19.70;;;;;8.40;100403.00;;;;5075271;28;20045;-64
2023/02/11 11:55:05;;;;;;;37.22;20.02;;;;;8.30;100397.00;;;;5074322;28;20169;-62
2023/02/11 11:57:35;;;;;;;36.20;20.13;;;;;8.20;100392.00;;;;5079884;28;20048;-64
2023/02/11 12:00:03;;;;;;;38.00;22.33;;;;;8.20;100392.00;;;;5076142;28;20048;-62
2023/02/11 12:02:42;;;;;;;37.20;21.20;;;;;8.20;100395.00;;;;5075545;28;20106;-61
2023/02/11 12:05:18;;;;;;;35.00;22.10;;;;;8.30;100393.00;;;;5074988;28;20041;-62
2023/02/11 12:08:09;;;;;;;36.20;21.27;;;;;8.20;100397.00;;;;5075135;28;20105;-62
2023/02/11 12:10:51;;;;;;;38.35;21.00;;;;;8.20;100394.00;;;;5074709;28;20048;-63
2023/02/11 12:13:41;;;;;;;35.05;21.00;;;;;8.40;100390.00;;;;5074106;28;20098;-63
2023/02/11 12:16:32;;;;;;;38.33;21.30;;;;;8.40;100399.00;;;;5074550;28;20485;-63
2023/02/11 12:19:05;;;;;;;32.05;19.80;;;;;8.30;100405.00;;;;5075050;28;20048;-62
2023/02/11 12:22:08;;;;;;;33.53;19.75;;;;;8.40;100407.00;;;;5074596;28;20405;-63